sensor_id;sensor_type;location;lat;lon;timestamp;temperature;humidity
14749;DHT22;7466;53.574;9.976;2023-12-07T00:01:47;0.80;99.90
14749;DHT22;7466;53.574;9.976;2023-12-07T00:04:14;0.80;99.90
14749;DHT22;7466;53.574;9.976;2023-12-07T00:06:41;0.80;99.90
14749;DHT22;7466;53.574;9.976;2023-12-07T00:09:09;0.80;99.90
14749;DHT22;7466;53.574;9.976;2023-12-07T00:11:35;0.80;99.90
14749;DHT22;7466;53.574;9.976;2023-12-07T00:14:02;0.80;99.90
14749;DHT22;7466;53.574;9.976;2023-12-07T00:16:29;0.80;99.90
14749;DHT22;7466;53.574;9.976;2023-12-07T00:18:56;0.80;99.90
14749;DHT22;7466;53.574;9.976;2023-12-07T00:21:22;0.80;99.90
14749;DHT22;7466;53.574;9.976;2023-12-07T00:23:49;0.80;99.90
14749;DHT22;7466;53.574;9.976;2023-12-07T00:26:17;0.80;99.90
14749;DHT22;7466;53.574;9.976;2023-12-07T00:28:44;0.80;99.90
14749;DHT22;7466;53.574;9.976;2023-12-07T00:31:11;0.80;99.90
14749;DHT22;7466;53.574;9.976;2023-12-07T00:33:37;0.90;99.90
14749;DHT22;7466;53.574;9.976;2023-12-07T00:36:04;0.90;99.90
14749;DHT22;7466;53.574;9.976;2023-12-07T00:38:31;0.90;99.90
14749;DHT22;7466;53.574;9.976;2023-12-07T00:40:58;0.90;99.90
14749;DHT22;7466;53.574;9.976;2023-12-07T00:43:26;0.90;99.90
14749;DHT22;7466;53.574;9.976;2023-12-07T00:45:53;0.80;99.90
14749;DHT22;7466;53.574;9.976;2023-12-07T00:48:20;0.80;99.90
14749;DHT22;7466;53.574;9.976;2023-12-07T00:50:46;0.80;99.90
14749;DHT22;7466;53.574;9.976;2023-12-07T00:53:13;0.80;99.90
14749;DHT22;7466;53.574;9.976;2023-12-07T00:55:40;0.80;99.90
14749;DHT22;7466;53.574;9.976;2023-12-07T00:58:07;0.90;99.90
14749;DHT22;7466;53.574;9.976;2023-12-07T01:00:35;0.90;99.90
14749;DHT22;7466;53.574;9.976;2023-12-07T01:03:02;0.90;99.90
14749;DHT22;7466;53.574;9.976;2023-12-07T01:05:29;0.90;99.90
14749;DHT22;7466;53.574;9.976;2023-12-07T01:07:55;0.90;99.90
14749;DHT22;7466;53.574;9.976;2023-12-07T01:10:22;0.80;99.90
14749;DHT22;7466;53.574;9.976;2023-12-07T01:12:49;0.80;99.90
14749;DHT22;7466;53.574;9.976;2023-12-07T01:15:15;0.80;99.90
14749;DHT22;7466;53.574;9.976;2023-12-07T01:17:43;0.80;99.90
14749;DHT22;7466;53.574;9.976;2023-12-07T01:20:11;0.90;99.90
14749;DHT22;7466;53.574;9.976;2023-12-07T01:22:39;0.90;99.90
14749;DHT22;7466;53.574;9.976;2023-12-07T01:25:06;0.90;99.90
14749;DHT22;7466;53.574;9.976;2023-12-07T01:27:33;0.90;99.90
14749;DHT22;7466;53.574;9.976;2023-12-07T01:30:00;0.90;99.90
14749;DHT22;7466;53.574;9.976;2023-12-07T01:32:27;0.90;99.90
14749;DHT22;7466;53.574;9.976;2023-12-07T01:34:55;0.90;99.90
14749;DHT22;7466;53.574;9.976;2023-12-07T01:37:21;0.90;99.90
14749;DHT22;7466;53.574;9.976;2023-12-07T01:39:49;0.90;99.90
14749;DHT22;7466;53.574;9.976;2023-12-07T01:42:16;0.90;99.90
14749;DHT22;7466;53.574;9.976;2023-12-07T01:44:42;0.90;99.90
14749;DHT22;7466;53.574;9.976;2023-12-07T01:47:09;0.90;99.90
14749;DHT22;7466;53.574;9.976;2023-12-07T01:49:36;0.90;99.90
14749;DHT22;7466;53.574;9.976;2023-12-07T01:52:05;0.90;99.90
14749;DHT22;7466;53.574;9.976;2023-12-07T01:54:33;0.90;99.90
14749;DHT22;7466;53.574;9.976;2023-12-07T01:57:00;0.90;99.90
14749;DHT22;7466;53.574;9.976;2023-12-07T01:59:26;0.90;99.90
14749;DHT22;7466;53.574;9.976;2023-12-07T02:01:53;0.90;99.90
14749;DHT22;7466;53.574;9.976;2023-12-07T02:04:20;0.90;99.90
14749;DHT22;7466;53.574;9.976;2023-12-07T02:06:47;1.00;99.90
14749;DHT22;7466;53.574;9.976;2023-12-07T02:09:15;1.00;99.90
14749;DHT22;7466;53.574;9.976;2023-12-07T02:11:42;0.90;99.90
14749;DHT22;7466;53.574;9.976;2023-12-07T02:14:09;0.90;99.90
14749;DHT22;7466;53.574;9.976;2023-12-07T02:16:41;0.90;99.90
14749;DHT22;7466;53.574;9.976;2023-12-07T02:19:20;1.00;99.90
14749;DHT22;7466;53.574;9.976;2023-12-07T02:21:56;0.90;99.90
14749;DHT22;7466;53.574;9.976;2023-12-07T02:24:27;0.90;99.90
14749;DHT22;7466;53.574;9.976;2023-12-07T02:27:03;0.90;99.90
14749;DHT22;7466;53.574;9.976;2023-12-07T02:29:29;0.90;99.90
14749;DHT22;7466;53.574;9.976;2023-12-07T02:31:56;0.90;99.90
14749;DHT22;7466;53.574;9.976;2023-12-07T02:34:23;1.00;99.90
14749;DHT22;7466;53.574;9.976;2023-12-07T02:36:52;1.00;99.90
14749;DHT22;7466;53.574;9.976;2023-12-07T02:39:20;0.90;99.90
14749;DHT22;7466;53.574;9.976;2023-12-07T02:41:49;1.00;99.90
14749;DHT22;7466;53.574;9.976;2023-12-07T02:44:17;0.90;99.90
14749;DHT22;7466;53.574;9.976;2023-12-07T02:46:45;0.90;99.90
14749;DHT22;7466;53.574;9.976;2023-12-07T02:49:11;0.90;99.90
14749;DHT22;7466;53.574;9.976;2023-12-07T02:51:38;0.90;99.90
14749;DHT22;7466;53.574;9.976;2023-12-07T02:54:05;1.00;99.90
14749;DHT22;7466;53.574;9.976;2023-12-07T02:56:32;1.00;99.90
14749;DHT22;7466;53.574;9.976;2023-12-07T02:58:58;1.00;99.90
14749;DHT22;7466;53.574;9.976;2023-12-07T03:01:26;1.00;99.90
14749;DHT22;7466;53.574;9.976;2023-12-07T03:03:53;1.00;99.90
14749;DHT22;7466;53.574;9.976;2023-12-07T03:06:20;1.00;99.90
14749;DHT22;7466;53.574;9.976;2023-12-07T03:08:46;1.10;99.90
14749;DHT22;7466;53.574;9.976;2023-12-07T03:11:13;1.00;99.90
14749;DHT22;7466;53.574;9.976;2023-12-07T03:13:40;1.00;99.90
14749;DHT22;7466;53.574;9.976;2023-12-07T03:16:09;1.00;99.90
14749;DHT22;7466;53.574;9.976;2023-12-07T03:18:38;1.00;99.90
14749;DHT22;7466;53.574;9.976;2023-12-07T03:21:04;1.00;99.90
14749;DHT22;7466;53.574;9.976;2023-12-07T03:23:32;1.00;99.90
14749;DHT22;7466;53.574;9.976;2023-12-07T03:25:58;1.00;99.90
14749;DHT22;7466;53.574;9.976;2023-12-07T03:28:25;1.00;99.90
14749;DHT22;7466;53.574;9.976;2023-12-07T03:30:52;1.00;99.90
14749;DHT22;7466;53.574;9.976;2023-12-07T03:33:18;1.00;99.90
14749;DHT22;7466;53.574;9.976;2023-12-07T03:35:46;1.10;99.90
14749;DHT22;7466;53.574;9.976;2023-12-07T03:38:14;1.10;99.90
14749;DHT22;7466;53.574;9.976;2023-12-07T03:40:42;1.10;99.90
14749;DHT22;7466;53.574;9.976;2023-12-07T03:43:13;1.10;99.90
14749;DHT22;7466;53.574;9.976;2023-12-07T03:45:39;1.10;99.90
14749;DHT22;7466;53.574;9.976;2023-12-07T03:48:06;1.10;99.90
14749;DHT22;7466;53.574;9.976;2023-12-07T03:50:33;1.10;99.90
14749;DHT22;7466;53.574;9.976;2023-12-07T03:53:01;1.10;99.90
14749;DHT22;7466;53.574;9.976;2023-12-07T03:55:28;1.10;99.90
14749;DHT22;7466;53.574;9.976;2023-12-07T03:57:54;1.20;99.90
14749;DHT22;7466;53.574;9.976;2023-12-07T04:00:21;1.10;99.90
14749;DHT22;7466;53.574;9.976;2023-12-07T04:02:48;1.20;99.90
14749;DHT22;7466;53.574;9.976;2023-12-07T04:05:15;1.20;99.90
14749;DHT22;7466;53.574;9.976;2023-12-07T04:07:42;1.20;99.90
14749;DHT22;7466;53.574;9.976;2023-12-07T04:10:10;1.20;99.90
14749;DHT22;7466;53.574;9.976;2023-12-07T04:12:37;1.10;99.90
14749;DHT22;7466;53.574;9.976;2023-12-07T04:15:06;1.20;99.90
14749;DHT22;7466;53.574;9.976;2023-12-07T04:17:33;1.20;99.90
14749;DHT22;7466;53.574;9.976;2023-12-07T04:19:59;1.20;99.90
14749;DHT22;7466;53.574;9.976;2023-12-07T04:22:26;1.20;99.90
14749;DHT22;7466;53.574;9.976;2023-12-07T04:24:54;1.20;99.90
14749;DHT22;7466;53.574;9.976;2023-12-07T04:27:22;1.20;99.90
14749;DHT22;7466;53.574;9.976;2023-12-07T04:29:49;1.20;99.90
14749;DHT22;7466;53.574;9.976;2023-12-07T04:32:15;1.20;99.90
14749;DHT22;7466;53.574;9.976;2023-12-07T04:34:42;1.20;99.90
14749;DHT22;7466;53.574;9.976;2023-12-07T04:37:09;1.20;99.90
14749;DHT22;7466;53.574;9.976;2023-12-07T04:39:36;1.20;99.90
14749;DHT22;7466;53.574;9.976;2023-12-07T04:42:03;1.20;99.90
14749;DHT22;7466;53.574;9.976;2023-12-07T04:44:31;1.20;99.90
14749;DHT22;7466;53.574;9.976;2023-12-07T04:46:58;1.20;99.90
14749;DHT22;7466;53.574;9.976;2023-12-07T04:49:24;1.10;99.90
14749;DHT22;7466;53.574;9.976;2023-12-07T04:51:51;1.20;99.90
14749;DHT22;7466;53.574;9.976;2023-12-07T04:54:18;1.10;99.90
14749;DHT22;7466;53.574;9.976;2023-12-07T04:56:45;1.20;99.90
14749;DHT22;7466;53.574;9.976;2023-12-07T04:59:11;1.20;99.90
14749;DHT22;7466;53.574;9.976;2023-12-07T05:01:39;1.20;99.90
14749;DHT22;7466;53.574;9.976;2023-12-07T05:04:06;1.20;99.90
14749;DHT22;7466;53.574;9.976;2023-12-07T05:06:33;1.20;99.90
14749;DHT22;7466;53.574;9.976;2023-12-07T05:09:00;1.20;99.90
14749;DHT22;7466;53.574;9.976;2023-12-07T05:11:27;1.20;99.90
14749;DHT22;7466;53.574;9.976;2023-12-07T05:13:54;1.20;99.90
14749;DHT22;7466;53.574;9.976;2023-12-07T05:16:21;1.20;99.90
14749;DHT22;7466;53.574;9.976;2023-12-07T05:18:49;1.20;99.90
14749;DHT22;7466;53.574;9.976;2023-12-07T05:21:16;1.20;99.90
14749;DHT22;7466;53.574;9.976;2023-12-07T05:23:43;1.20;99.90
14749;DHT22;7466;53.574;9.976;2023-12-07T05:26:09;1.20;99.90
14749;DHT22;7466;53.574;9.976;2023-12-07T05:28:36;1.30;99.90
14749;DHT22;7466;53.574;9.976;2023-12-07T05:31:03;1.20;99.90
14749;DHT22;7466;53.574;9.976;2023-12-07T05:33:30;1.20;99.90
14749;DHT22;7466;53.574;9.976;2023-12-07T05:35:58;1.20;99.90
14749;DHT22;7466;53.574;9.976;2023-12-07T05:38:26;1.20;99.90
14749;DHT22;7466;53.574;9.976;2023-12-07T05:40:52;1.20;99.90
14749;DHT22;7466;53.574;9.976;2023-12-07T05:43:19;1.20;99.90
14749;DHT22;7466;53.574;9.976;2023-12-07T05:45:46;1.20;99.90
14749;DHT22;7466;53.574;9.976;2023-12-07T05:48:13;1.20;99.90
14749;DHT22;7466;53.574;9.976;2023-12-07T05:50:39;1.20;99.90
14749;DHT22;7466;53.574;9.976;2023-12-07T05:53:07;1.20;99.90
14749;DHT22;7466;53.574;9.976;2023-12-07T05:55:36;1.20;99.90
14749;DHT22;7466;53.574;9.976;2023-12-07T05:58:02;1.20;99.90
14749;DHT22;7466;53.574;9.976;2023-12-07T06:00:30;1.20;99.90
14749;DHT22;7466;53.574;9.976;2023-12-07T06:02:57;1.20;99.90
14749;DHT22;7466;53.574;9.976;2023-12-07T06:05:23;1.30;99.90
14749;DHT22;7466;53.574;9.976;2023-12-07T06:07:50;1.30;99.90
14749;DHT22;7466;53.574;9.976;2023-12-07T06:10:20;1.30;99.90
14749;DHT22;7466;53.574;9.976;2023-12-07T06:12:47;1.30;99.90
14749;DHT22;7466;53.574;9.976;2023-12-07T06:15:13;1.30;99.90
14749;DHT22;7466;53.574;9.976;2023-12-07T06:17:40;1.30;99.90
14749;DHT22;7466;53.574;9.976;2023-12-07T06:20:07;1.30;99.90
14749;DHT22;7466;53.574;9.976;2023-12-07T06:22:34;1.30;99.90
14749;DHT22;7466;53.574;9.976;2023-12-07T06:25:01;1.30;99.90
14749;DHT22;7466;53.574;9.976;2023-12-07T06:27:29;1.20;99.90
14749;DHT22;7466;53.574;9.976;2023-12-07T06:29:56;1.20;99.90
14749;DHT22;7466;53.574;9.976;2023-12-07T06:32:22;1.20;99.90
14749;DHT22;7466;53.574;9.976;2023-12-07T06:34:49;1.30;99.90
14749;DHT22;7466;53.574;9.976;2023-12-07T06:37:16;1.30;99.90
14749;DHT22;7466;53.574;9.976;2023-12-07T06:39:43;1.20;99.90
14749;DHT22;7466;53.574;9.976;2023-12-07T06:42:10;1.20;99.90
14749;DHT22;7466;53.574;9.976;2023-12-07T06:44:38;1.30;99.90
14749;DHT22;7466;53.574;9.976;2023-12-07T06:47:04;1.20;99.90
14749;DHT22;7466;53.574;9.976;2023-12-07T06:49:31;1.30;99.90
14749;DHT22;7466;53.574;9.976;2023-12-07T06:51:58;1.30;99.90
14749;DHT22;7466;53.574;9.976;2023-12-07T06:54:24;1.30;99.90
14749;DHT22;7466;53.574;9.976;2023-12-07T06:56:51;1.40;99.90
14749;DHT22;7466;53.574;9.976;2023-12-07T06:59:18;1.30;99.90
14749;DHT22;7466;53.574;9.976;2023-12-07T07:01:46;1.40;99.90
14749;DHT22;7466;53.574;9.976;2023-12-07T07:04:14;1.40;99.90
14749;DHT22;7466;53.574;9.976;2023-12-07T07:06:41;1.40;99.90
14749;DHT22;7466;53.574;9.976;2023-12-07T07:09:08;1.40;99.90
14749;DHT22;7466;53.574;9.976;2023-12-07T07:11:35;1.40;99.90
14749;DHT22;7466;53.574;9.976;2023-12-07T07:14:02;1.40;99.90
14749;DHT22;7466;53.574;9.976;2023-12-07T07:16:29;1.40;99.90
14749;DHT22;7466;53.574;9.976;2023-12-07T07:18:58;1.40;99.90
14749;DHT22;7466;53.574;9.976;2023-12-07T07:21:25;1.40;99.90
14749;DHT22;7466;53.574;9.976;2023-12-07T07:23:51;1.40;99.90
14749;DHT22;7466;53.574;9.976;2023-12-07T07:26:18;1.40;99.90
14749;DHT22;7466;53.574;9.976;2023-12-07T07:28:45;1.40;99.90
14749;DHT22;7466;53.574;9.976;2023-12-07T07:31:11;1.50;99.90
14749;DHT22;7466;53.574;9.976;2023-12-07T07:33:38;1.40;99.90
14749;DHT22;7466;53.574;9.976;2023-12-07T07:36:07;1.40;99.90
14749;DHT22;7466;53.574;9.976;2023-12-07T07:38:34;1.50;99.90
14749;DHT22;7466;53.574;9.976;2023-12-07T07:41:01;1.50;99.90
14749;DHT22;7466;53.574;9.976;2023-12-07T07:43:27;1.50;99.90
14749;DHT22;7466;53.574;9.976;2023-12-07T07:45:54;1.40;99.90
14749;DHT22;7466;53.574;9.976;2023-12-07T07:48:21;1.50;99.90
14749;DHT22;7466;53.574;9.976;2023-12-07T07:50:48;1.50;99.90
14749;DHT22;7466;53.574;9.976;2023-12-07T07:53:16;1.60;99.90
14749;DHT22;7466;53.574;9.976;2023-12-07T07:55:43;1.50;99.90
14749;DHT22;7466;53.574;9.976;2023-12-07T07:58:10;1.60;99.90
14749;DHT22;7466;53.574;9.976;2023-12-07T08:00:37;1.60;99.90
14749;DHT22;7466;53.574;9.976;2023-12-07T08:03:03;1.60;99.90
14749;DHT22;7466;53.574;9.976;2023-12-07T08:05:30;1.60;99.90
14749;DHT22;7466;53.574;9.976;2023-12-07T08:07:57;1.60;99.90
14749;DHT22;7466;53.574;9.976;2023-12-07T08:10:25;1.60;99.90
14749;DHT22;7466;53.574;9.976;2023-12-07T08:12:52;1.60;99.90
14749;DHT22;7466;53.574;9.976;2023-12-07T08:15:19;1.60;99.90
14749;DHT22;7466;53.574;9.976;2023-12-07T08:17:47;1.60;99.90
14749;DHT22;7466;53.574;9.976;2023-12-07T08:20:14;1.60;99.90
14749;DHT22;7466;53.574;9.976;2023-12-07T08:22:40;1.60;99.90
14749;DHT22;7466;53.574;9.976;2023-12-07T08:25:07;1.60;99.90
14749;DHT22;7466;53.574;9.976;2023-12-07T08:27:36;1.50;99.90
14749;DHT22;7466;53.574;9.976;2023-12-07T08:30:05;1.60;99.90
14749;DHT22;7466;53.574;9.976;2023-12-07T08:32:31;1.70;99.90
14749;DHT22;7466;53.574;9.976;2023-12-07T08:34:58;1.70;99.90
14749;DHT22;7466;53.574;9.976;2023-12-07T08:37:25;1.70;99.90
14749;DHT22;7466;53.574;9.976;2023-12-07T08:39:51;1.80;99.90
14749;DHT22;7466;53.574;9.976;2023-12-07T08:42:18;1.80;99.90
14749;DHT22;7466;53.574;9.976;2023-12-07T08:44:46;1.80;99.90
14749;DHT22;7466;53.574;9.976;2023-12-07T08:47:13;1.90;99.90
14749;DHT22;7466;53.574;9.976;2023-12-07T08:49:40;1.90;99.90
14749;DHT22;7466;53.574;9.976;2023-12-07T08:52:07;1.90;99.90
14749;DHT22;7466;53.574;9.976;2023-12-07T08:54:33;2.00;99.90
14749;DHT22;7466;53.574;9.976;2023-12-07T08:57:01;2.00;99.90
14749;DHT22;7466;53.574;9.976;2023-12-07T08:59:28;2.00;99.90
14749;DHT22;7466;53.574;9.976;2023-12-07T09:01:57;2.00;99.90
14749;DHT22;7466;53.574;9.976;2023-12-07T09:04:23;2.00;99.90
14749;DHT22;7466;53.574;9.976;2023-12-07T09:06:50;2.00;99.90
14749;DHT22;7466;53.574;9.976;2023-12-07T09:09:17;2.20;99.90
14749;DHT22;7466;53.574;9.976;2023-12-07T09:11:44;2.20;99.90
14749;DHT22;7466;53.574;9.976;2023-12-07T09:14:10;2.20;99.90
14749;DHT22;7466;53.574;9.976;2023-12-07T09:16:43;2.20;99.90
14749;DHT22;7466;53.574;9.976;2023-12-07T09:19:11;2.10;99.90
14749;DHT22;7466;53.574;9.976;2023-12-07T09:21:39;2.20;99.90
14749;DHT22;7466;53.574;9.976;2023-12-07T09:24:06;2.30;99.90
14749;DHT22;7466;53.574;9.976;2023-12-07T09:26:33;2.20;99.90
14749;DHT22;7466;53.574;9.976;2023-12-07T09:29:00;2.20;99.90
14749;DHT22;7466;53.574;9.976;2023-12-07T09:31:26;2.10;99.90
14749;DHT22;7466;53.574;9.976;2023-12-07T09:33:54;2.20;99.90
14749;DHT22;7466;53.574;9.976;2023-12-07T09:36:23;2.20;99.90
14749;DHT22;7466;53.574;9.976;2023-12-07T09:38:52;2.30;99.90
14749;DHT22;7466;53.574;9.976;2023-12-07T09:41:19;2.30;99.90
14749;DHT22;7466;53.574;9.976;2023-12-07T09:43:46;2.20;99.90
14749;DHT22;7466;53.574;9.976;2023-12-07T09:46:13;2.20;99.90
14749;DHT22;7466;53.574;9.976;2023-12-07T09:48:42;2.10;99.90
14749;DHT22;7466;53.574;9.976;2023-12-07T09:51:10;2.00;99.90
14749;DHT22;7466;53.574;9.976;2023-12-07T09:53:39;2.00;99.90
14749;DHT22;7466;53.574;9.976;2023-12-07T09:56:09;2.00;99.90
14749;DHT22;7466;53.574;9.976;2023-12-07T09:58:36;1.90;99.90
14749;DHT22;7466;53.574;9.976;2023-12-07T10:01:03;1.80;99.90
14749;DHT22;7466;53.574;9.976;2023-12-07T10:03:30;1.60;99.90
14749;DHT22;7466;53.574;9.976;2023-12-07T10:05:58;1.70;99.90
14749;DHT22;7466;53.574;9.976;2023-12-07T10:08:26;1.60;99.90
14749;DHT22;7466;53.574;9.976;2023-12-07T10:11:04;1.60;99.90
14749;DHT22;7466;53.574;9.976;2023-12-07T10:13:31;1.70;99.90
14749;DHT22;7466;53.574;9.976;2023-12-07T10:16:10;1.80;99.90
14749;DHT22;7466;53.574;9.976;2023-12-07T10:18:37;1.70;99.90
14749;DHT22;7466;53.574;9.976;2023-12-07T10:21:06;1.70;99.90
14749;DHT22;7466;53.574;9.976;2023-12-07T10:23:33;1.70;99.90
14749;DHT22;7466;53.574;9.976;2023-12-07T10:26:00;1.70;99.90
14749;DHT22;7466;53.574;9.976;2023-12-07T10:28:29;1.60;99.90
14749;DHT22;7466;53.574;9.976;2023-12-07T10:30:57;1.60;99.90
14749;DHT22;7466;53.574;9.976;2023-12-07T10:33:23;1.70;99.90
14749;DHT22;7466;53.574;9.976;2023-12-07T10:35:52;1.80;99.90
14749;DHT22;7466;53.574;9.976;2023-12-07T10:38:18;1.80;99.90
14749;DHT22;7466;53.574;9.976;2023-12-07T10:40:46;1.90;99.90
14749;DHT22;7466;53.574;9.976;2023-12-07T10:43:15;1.90;99.90
14749;DHT22;7466;53.574;9.976;2023-12-07T10:45:45;1.90;99.90
14749;DHT22;7466;53.574;9.976;2023-12-07T10:48:14;2.00;99.90
14749;DHT22;7466;53.574;9.976;2023-12-07T10:50:42;1.90;99.90
14749;DHT22;7466;53.574;9.976;2023-12-07T10:53:11;1.90;99.90
14749;DHT22;7466;53.574;9.976;2023-12-07T10:55:45;1.90;99.90
14749;DHT22;7466;53.574;9.976;2023-12-07T10:58:14;1.90;99.90
14749;DHT22;7466;53.574;9.976;2023-12-07T11:00:44;1.90;99.90
14749;DHT22;7466;53.574;9.976;2023-12-07T11:03:14;1.80;99.90
14749;DHT22;7466;53.574;9.976;2023-12-07T11:05:43;1.90;99.90
14749;DHT22;7466;53.574;9.976;2023-12-07T11:08:15;1.90;99.90
14749;DHT22;7466;53.574;9.976;2023-12-07T11:10:47;2.00;99.90
14749;DHT22;7466;53.574;9.976;2023-12-07T11:13:20;2.00;99.90
14749;DHT22;7466;53.574;9.976;2023-12-07T11:15:50;2.00;99.90
14749;DHT22;7466;53.574;9.976;2023-12-07T11:18:17;2.10;99.90
14749;DHT22;7466;53.574;9.976;2023-12-07T11:20:45;2.20;99.90
14749;DHT22;7466;53.574;9.976;2023-12-07T11:23:16;2.10;99.90
14749;DHT22;7466;53.574;9.976;2023-12-07T11:25:43;2.20;99.90
14749;DHT22;7466;53.574;9.976;2023-12-07T11:28:11;2.20;99.90
14749;DHT22;7466;53.574;9.976;2023-12-07T11:30:41;2.40;99.90
14749;DHT22;7466;53.574;9.976;2023-12-07T11:33:10;2.30;99.90
14749;DHT22;7466;53.574;9.976;2023-12-07T11:36:05;2.30;99.90
14749;DHT22;7466;53.574;9.976;2023-12-07T11:38:33;2.30;99.90
14749;DHT22;7466;53.574;9.976;2023-12-07T11:40:59;2.30;99.90
14749;DHT22;7466;53.574;9.976;2023-12-07T11:43:42;2.40;99.90
14749;DHT22;7466;53.574;9.976;2023-12-07T11:46:12;2.50;99.90
14749;DHT22;7466;53.574;9.976;2023-12-07T11:48:46;2.50;99.90
14749;DHT22;7466;53.574;9.976;2023-12-07T11:51:13;2.60;99.90
14749;DHT22;7466;53.574;9.976;2023-12-07T11:53:40;2.60;99.90
14749;DHT22;7466;53.574;9.976;2023-12-07T11:56:08;2.60;99.90
14749;DHT22;7466;53.574;9.976;2023-12-07T11:58:36;2.60;99.90
14749;DHT22;7466;53.574;9.976;2023-12-07T12:01:04;2.60;99.90
14749;DHT22;7466;53.574;9.976;2023-12-07T12:03:31;2.50;99.90
14749;DHT22;7466;53.574;9.976;2023-12-07T12:06:05;2.50;99.90
14749;DHT22;7466;53.574;9.976;2023-12-07T12:08:33;2.40;99.90
14749;DHT22;7466;53.574;9.976;2023-12-07T12:11:00;2.40;99.90
14749;DHT22;7466;53.574;9.976;2023-12-07T12:13:27;2.50;99.90
14749;DHT22;7466;53.574;9.976;2023-12-07T12:15:55;2.50;99.90
14749;DHT22;7466;53.574;9.976;2023-12-07T12:18:22;2.60;99.90
14749;DHT22;7466;53.574;9.976;2023-12-07T12:20:51;2.70;99.90
14749;DHT22;7466;53.574;9.976;2023-12-07T12:23:19;2.70;99.90
14749;DHT22;7466;53.574;9.976;2023-12-07T12:25:46;2.60;99.90
14749;DHT22;7466;53.574;9.976;2023-12-07T12:28:16;2.70;99.90
14749;DHT22;7466;53.574;9.976;2023-12-07T12:30:43;2.70;99.90
14749;DHT22;7466;53.574;9.976;2023-12-07T12:33:10;2.70;99.90
14749;DHT22;7466;53.574;9.976;2023-12-07T12:35:37;2.70;99.90
14749;DHT22;7466;53.574;9.976;2023-12-07T12:38:09;2.80;99.90
14749;DHT22;7466;53.574;9.976;2023-12-07T12:40:38;2.90;99.90
14749;DHT22;7466;53.574;9.976;2023-12-07T12:43:07;2.90;99.90
14749;DHT22;7466;53.574;9.976;2023-12-07T12:45:34;2.90;99.90
14749;DHT22;7466;53.574;9.976;2023-12-07T12:48:01;2.90;99.90
14749;DHT22;7466;53.574;9.976;2023-12-07T12:50:35;2.80;99.90
14749;DHT22;7466;53.574;9.976;2023-12-07T12:53:04;2.80;99.90
14749;DHT22;7466;53.574;9.976;2023-12-07T12:55:32;2.80;99.90
14749;DHT22;7466;53.574;9.976;2023-12-07T12:58:01;2.80;99.90
14749;DHT22;7466;53.574;9.976;2023-12-07T13:00:29;2.90;99.90
14749;DHT22;7466;53.574;9.976;2023-12-07T13:02:56;2.90;99.90
14749;DHT22;7466;53.574;9.976;2023-12-07T13:05:23;2.90;99.90
14749;DHT22;7466;53.574;9.976;2023-12-07T13:07:49;2.90;99.90
14749;DHT22;7466;53.574;9.976;2023-12-07T13:10:17;2.90;99.90
14749;DHT22;7466;53.574;9.976;2023-12-07T13:12:44;2.80;99.90
14749;DHT22;7466;53.574;9.976;2023-12-07T13:15:12;2.90;99.90
14749;DHT22;7466;53.574;9.976;2023-12-07T13:17:40;2.90;99.90
14749;DHT22;7466;53.574;9.976;2023-12-07T13:20:08;2.90;99.90
14749;DHT22;7466;53.574;9.976;2023-12-07T13:22:36;2.90;99.90
14749;DHT22;7466;53.574;9.976;2023-12-07T13:25:05;2.90;99.90
14749;DHT22;7466;53.574;9.976;2023-12-07T13:27:32;2.90;99.90
14749;DHT22;7466;53.574;9.976;2023-12-07T13:29:59;2.90;99.90
14749;DHT22;7466;53.574;9.976;2023-12-07T13:32:27;2.90;99.90
14749;DHT22;7466;53.574;9.976;2023-12-07T13:34:54;2.90;99.90
14749;DHT22;7466;53.574;9.976;2023-12-07T13:37:20;2.90;99.90
14749;DHT22;7466;53.574;9.976;2023-12-07T13:39:47;2.90;99.90
14749;DHT22;7466;53.574;9.976;2023-12-07T13:42:18;2.80;99.90
14749;DHT22;7466;53.574;9.976;2023-12-07T13:44:45;2.80;99.90
14749;DHT22;7466;53.574;9.976;2023-12-07T13:47:12;2.70;99.90
14749;DHT22;7466;53.574;9.976;2023-12-07T13:49:40;2.70;99.90
14749;DHT22;7466;53.574;9.976;2023-12-07T13:52:07;2.60;99.90
14749;DHT22;7466;53.574;9.976;2023-12-07T13:54:34;2.60;99.90
14749;DHT22;7466;53.574;9.976;2023-12-07T13:57:01;2.70;99.90
14749;DHT22;7466;53.574;9.976;2023-12-07T13:59:28;2.70;99.90
14749;DHT22;7466;53.574;9.976;2023-12-07T14:01:55;2.60;99.90
14749;DHT22;7466;53.574;9.976;2023-12-07T14:04:22;2.60;99.90
14749;DHT22;7466;53.574;9.976;2023-12-07T14:06:50;2.60;99.90
14749;DHT22;7466;53.574;9.976;2023-12-07T14:09:17;2.50;99.90
14749;DHT22;7466;53.574;9.976;2023-12-07T14:11:44;2.50;99.90
14749;DHT22;7466;53.574;9.976;2023-12-07T14:14:11;2.50;99.90
14749;DHT22;7466;53.574;9.976;2023-12-07T14:16:38;2.40;99.90
14749;DHT22;7466;53.574;9.976;2023-12-07T14:19:06;2.40;99.90
14749;DHT22;7466;53.574;9.976;2023-12-07T14:21:33;2.30;99.90
14749;DHT22;7466;53.574;9.976;2023-12-07T14:24:01;2.30;99.90
14749;DHT22;7466;53.574;9.976;2023-12-07T14:26:28;2.20;99.90
14749;DHT22;7466;53.574;9.976;2023-12-07T14:28:54;2.20;99.90
14749;DHT22;7466;53.574;9.976;2023-12-07T14:31:20;2.20;99.90
14749;DHT22;7466;53.574;9.976;2023-12-07T14:33:47;2.20;99.90
14749;DHT22;7466;53.574;9.976;2023-12-07T14:36:14;2.20;99.90
14749;DHT22;7466;53.574;9.976;2023-12-07T14:38:40;2.20;99.90
14749;DHT22;7466;53.574;9.976;2023-12-07T14:41:09;2.30;99.90
14749;DHT22;7466;53.574;9.976;2023-12-07T14:43:38;2.20;99.90
14749;DHT22;7466;53.574;9.976;2023-12-07T14:46:06;2.20;99.90
14749;DHT22;7466;53.574;9.976;2023-12-07T14:48:33;2.20;99.90
14749;DHT22;7466;53.574;9.976;2023-12-07T14:51:00;2.10;99.90
14749;DHT22;7466;53.574;9.976;2023-12-07T14:53:28;2.20;99.90
14749;DHT22;7466;53.574;9.976;2023-12-07T14:55:54;2.20;99.90
14749;DHT22;7466;53.574;9.976;2023-12-07T14:58:24;2.10;99.90
14749;DHT22;7466;53.574;9.976;2023-12-07T15:00:51;2.10;99.90
14749;DHT22;7466;53.574;9.976;2023-12-07T15:03:19;2.20;99.90
14749;DHT22;7466;53.574;9.976;2023-12-07T15:05:47;2.20;99.90
14749;DHT22;7466;53.574;9.976;2023-12-07T15:08:14;2.20;99.90
14749;DHT22;7466;53.574;9.976;2023-12-07T15:10:41;2.20;99.90
14749;DHT22;7466;53.574;9.976;2023-12-07T15:13:07;2.10;99.90
14749;DHT22;7466;53.574;9.976;2023-12-07T15:15:35;2.20;99.90
14749;DHT22;7466;53.574;9.976;2023-12-07T15:18:03;2.10;99.90
14749;DHT22;7466;53.574;9.976;2023-12-07T15:20:29;2.10;99.90
14749;DHT22;7466;53.574;9.976;2023-12-07T15:22:56;2.10;99.90
14749;DHT22;7466;53.574;9.976;2023-12-07T15:25:23;2.10;99.90
14749;DHT22;7466;53.574;9.976;2023-12-07T15:27:50;2.20;99.90
14749;DHT22;7466;53.574;9.976;2023-12-07T15:30:16;2.10;99.90
14749;DHT22;7466;53.574;9.976;2023-12-07T15:32:45;2.10;99.90
14749;DHT22;7466;53.574;9.976;2023-12-07T15:35:11;2.10;99.90
14749;DHT22;7466;53.574;9.976;2023-12-07T15:37:38;2.10;99.90
14749;DHT22;7466;53.574;9.976;2023-12-07T15:40:06;2.10;99.90
14749;DHT22;7466;53.574;9.976;2023-12-07T15:42:35;2.20;99.90
14749;DHT22;7466;53.574;9.976;2023-12-07T15:45:03;2.10;99.90
14749;DHT22;7466;53.574;9.976;2023-12-07T15:47:29;2.10;99.90
14749;DHT22;7466;53.574;9.976;2023-12-07T15:49:58;2.10;99.90
14749;DHT22;7466;53.574;9.976;2023-12-07T15:52:24;2.10;99.90
14749;DHT22;7466;53.574;9.976;2023-12-07T15:54:52;2.10;99.90
14749;DHT22;7466;53.574;9.976;2023-12-07T15:57:18;2.10;99.90
14749;DHT22;7466;53.574;9.976;2023-12-07T15:59:45;2.00;99.90
14749;DHT22;7466;53.574;9.976;2023-12-07T16:02:12;2.10;99.90
14749;DHT22;7466;53.574;9.976;2023-12-07T16:04:39;2.10;99.90